Time;durP1;ratioP1;P1;durP2;ratioP2;P2;SDS_P1;SDS_P2;PMS_P1;PMS_P2;Temp;Humidity;BMP_temperature;BMP_pressure;BME280_temperature;BME280_humidity;BME280_pressure;Samples;Min_cycle;Max_cycle;Signal;HPM_P1;HPM_P2
2023/09/28 11:31:27;;;;;;;7.95;5.70;;;;;;;;;;6172228;22;20337;31
2023/09/28 11:33:57;;;;;;;10.13;5.85;;;;;;;;;;4974603;28;20101;-79
2023/09/28 11:36:22;;;;;;;10.65;7.13;;;;;;;;;;4976577;28;20393;-79
2023/09/28 11:38:52;;;;;;;5.72;5.22;;;;;;;;;;4979779;28;20098;-78
2023/09/28 11:41:18;;;;;;;7.10;5.28;;;;;;;;;;4995633;28;20026;-78
2023/09/28 11:43:56;;;;;;;6.53;5.85;;;;;;;;;;4995463;28;20033;-78
2023/09/28 11:46:22;;;;;;;8.57;5.77;;;;;;;;;;4995675;28;20022;-79
2023/09/28 11:49:04;;;;;;;11.90;6.32;;;;;;;;;;4995492;28;20034;-79
2023/09/28 11:51:31;;;;;;;7.93;5.70;;;;;;;;;;4995599;28;20546;-78
2023/09/28 11:53:57;;;;;;;6.70;5.65;;;;;;;;;;4995587;28;20030;-79
2023/09/28 11:56:23;;;;;;;7.43;5.22;;;;;;;;;;4995669;28;20030;-77
2023/09/28 11:58:49;;;;;;;7.00;5.97;;;;;;;;;;4995328;28;20026;-80
2023/09/28 12:01:14;;;;;;;7.53;5.35;;;;;;;;;;4995453;28;20484;-79
2023/09/28 12:03:40;;;;;;;8.48;6.15;;;;;;;;;;4994739;28;20069;-79
2023/09/28 12:06:05;;;;;;;7.07;5.47;;;;;;;;;;4994829;28;20030;-79
2023/09/28 12:08:31;;;;;;;9.00;5.43;;;;;;;;;;4995409;28;20029;-79
2023/09/28 12:10:57;;;;;;;6.32;5.72;;;;;;;;;;4995055;28;20030;-79
2023/09/28 12:13:24;;;;;;;8.73;5.90;;;;;;;;;;4995216;28;20034;-79
2023/09/28 12:15:50;;;;;;;5.75;5.22;;;;;;;;;;4995085;28;20041;-80
2023/09/28 12:18:16;;;;;;;8.20;6.18;;;;;;;;;;4995163;28;20389;-80
2023/09/28 12:20:41;;;;;;;7.80;5.90;;;;;;;;;;4993972;28;20033;-81
2023/09/28 12:23:08;;;;;;;8.75;5.80;;;;;;;;;;4994885;28;20026;-79
2023/09/28 12:25:36;;;;;;;8.35;5.88;;;;;;;;;;4995110;28;20029;-81
2023/09/28 12:28:02;;;;;;;9.15;5.97;;;;;;;;;;4977182;28;20026;-79
2023/09/28 12:30:30;;;;;;;10.93;5.68;;;;;;;;;;4977569;28;20041;-81
2023/09/28 12:32:57;;;;;;;9.20;5.57;;;;;;;;;;5009223;28;20400;-80
2023/09/28 12:35:23;;;;;;;7.03;5.53;;;;;;;;;;5014196;28;20030;-81
2023/09/28 12:37:49;;;;;;;5.82;4.95;;;;;;;;;;5014263;28;20072;-78
2023/09/28 12:40:17;;;;;;;6.95;5.13;;;;;;;;;;5014325;28;20022;-79
2023/09/28 12:42:43;;;;;;;10.55;5.60;;;;;;;;;;5014638;28;20461;-78
2023/09/28 12:45:09;;;;;;;8.75;5.75;;;;;;;;;;5014063;28;20100;-78
2023/09/28 12:47:35;;;;;;;7.80;5.22;;;;;;;;;;5014007;28;20018;-78
2023/09/28 12:50:02;;;;;;;7.32;5.35;;;;;;;;;;5014580;28;20096;-79
2023/09/28 12:52:28;;;;;;;7.80;5.65;;;;;;;;;;5014292;28;20476;-79
2023/09/28 12:54:53;;;;;;;7.05;5.45;;;;;;;;;;5014353;28;20038;-79
2023/09/28 12:57:19;;;;;;;5.72;5.10;;;;;;;;;;5014363;28;20033;-80
2023/09/28 12:59:47;;;;;;;7.05;5.05;;;;;;;;;;5014048;28;20472;-77
2023/09/28 13:02:14;;;;;;;6.20;4.90;;;;;;;;;;5014053;28;20030;-79
2023/09/28 13:04:40;;;;;;;8.73;5.70;;;;;;;;;;5014324;28;20042;-78
2023/09/28 13:07:06;;;;;;;10.82;5.72;;;;;;;;;;5014038;28;20554;-78
2023/09/28 13:09:32;;;;;;;7.68;5.30;;;;;;;;;;5014024;28;20113;-77
2023/09/28 13:11:59;;;;;;;7.78;5.82;;;;;;;;;;4996353;28;20026;-79
2023/09/28 13:14:28;;;;;;;7.13;5.45;;;;;;;;;;5013964;28;20085;-78
2023/09/28 13:16:55;;;;;;;9.13;5.30;;;;;;;;;;5014113;28;20037;-79
2023/09/28 13:19:28;;;;;;;8.43;5.20;;;;;;;;;;5013695;28;20121;-78
2023/09/28 13:21:58;;;;;;;8.88;5.75;;;;;;;;;;5013761;28;20022;-80
2023/09/28 13:24:24;;;;;;;6.28;5.30;;;;;;;;;;5013850;28;20480;-78
2023/09/28 13:26:50;;;;;;;6.10;5.05;;;;;;;;;;5014045;28;20030;-78
2023/09/28 13:29:20;;;;;;;6.30;5.05;;;;;;;;;;5013531;28;20037;-79
2023/09/28 13:31:50;;;;;;;5.60;5.00;;;;;;;;;;5014422;28;20141;-79
2023/09/28 13:34:17;;;;;;;6.80;5.45;;;;;;;;;;5000058;28;20480;-79
2023/09/28 13:36:44;;;;;;;6.93;5.55;;;;;;;;;;5017900;28;20439;-79
2023/09/28 13:42:00;;;;;;;6.20;5.57;;;;;;;;;;5017790;28;20037;-80
2023/09/28 13:44:27;;;;;;;6.25;5.10;;;;;;;;;;5017608;28;20534;-80
2023/09/28 13:46:53;;;;;;;6.60;5.68;;;;;;;;;;5017504;28;20113;-79
2023/09/28 13:49:25;;;;;;;6.97;5.65;;;;;;;;;;5017266;28;20025;-79
2023/09/28 13:51:52;;;;;;;8.45;5.88;;;;;;;;;;5017549;28;20483;-81
2023/09/28 13:54:20;;;;;;;6.82;5.55;;;;;;;;;;5017513;28;20025;-79
2023/09/28 13:56:49;;;;;;;6.47;5.53;;;;;;;;;;5017768;28;20445;-79
2023/09/28 13:59:15;;;;;;;9.13;5.53;;;;;;;;;;5017109;28;20267;-81
2023/09/28 14:01:46;;;;;;;6.47;5.80;;;;;;;;;;4999683;28;20037;-80
2023/09/28 14:04:13;;;;;;;6.65;5.65;;;;;;;;;;5017222;28;20022;-81
2023/09/28 14:06:40;;;;;;;6.82;5.65;;;;;;;;;;5017252;28;20457;-79
2023/09/28 14:09:10;;;;;;;6.10;5.50;;;;;;;;;;5016889;28;20068;-80
2023/09/28 14:11:40;;;;;;;7.28;5.68;;;;;;;;;;5016974;28;20030;-80
2023/09/28 14:14:07;;;;;;;7.07;5.50;;;;;;;;;;5016936;28;20022;-79
2023/09/28 14:16:39;;;;;;;6.30;5.53;;;;;;;;;;5016836;28;20034;-79
2023/09/28 14:19:08;;;;;;;7.63;5.50;;;;;;;;;;5016758;28;20034;-79
2023/09/28 14:21:35;;;;;;;6.88;5.80;;;;;;;;;;5016945;28;20068;-79
2023/09/28 14:24:05;;;;;;;7.22;5.57;;;;;;;;;;5016666;28;20030;-79
2023/09/28 14:26:32;;;;;;;5.35;4.82;;;;;;;;;;4999192;28;20377;-79
2023/09/28 14:28:57;;;;;;;6.57;5.32;;;;;;;;;;5016901;28;20026;-80
2023/09/28 14:31:23;;;;;;;8.40;5.47;;;;;;;;;;5016507;28;20034;-79
2023/09/28 14:33:49;;;;;;;7.20;5.40;;;;;;;;;;5016700;28;20057;-80
2023/09/28 14:36:14;;;;;;;12.70;6.43;;;;;;;;;;5016326;28;20026;-78
2023/09/28 14:38:40;;;;;;;7.47;6.00;;;;;;;;;;5016467;28;20041;-79
2023/09/28 14:41:06;;;;;;;7.05;6.20;;;;;;;;;;5016597;28;20022;-79
2023/09/28 14:43:32;;;;;;;7.30;5.97;;;;;;;;;;5015176;28;20350;-79
2023/09/28 14:45:58;;;;;;;6.57;5.68;;;;;;;;;;5016445;28;20033;-80
2023/09/28 14:48:23;;;;;;;6.75;5.50;;;;;;;;;;5016065;28;20065;-80
2023/09/28 14:50:49;;;;;;;9.88;6.28;;;;;;;;;;5016425;28;20042;-79
2023/09/28 14:53:16;;;;;;;7.43;6.43;;;;;;;;;;5016344;28;20033;-79
2023/09/28 14:55:44;;;;;;;6.68;5.63;;;;;;;;;;5016213;28;20097;-79
2023/09/28 14:58:10;;;;;;;8.48;5.85;;;;;;;;;;5016217;28;20026;-79
2023/09/28 15:00:37;;;;;;;6.53;5.65;;;;;;;;;;5016064;28;20060;-80
2023/09/28 15:03:03;;;;;;;5.80;5.18;;;;;;;;;;5015875;28;20524;-79
2023/09/28 15:05:29;;;;;;;5.93;5.40;;;;;;;;;;5016676;28;20487;-78
2023/09/28 15:07:54;;;;;;;9.48;6.88;;;;;;;;;;5016126;28;20026;-79
2023/09/28 15:10:20;;;;;;;7.43;6.07;;;;;;;;;;5016162;28;20026;-80
2023/09/28 15:12:45;;;;;;;7.53;5.85;;;;;;;;;;5016026;28;20033;-79
2023/09/28 15:15:11;;;;;;;7.07;5.70;;;;;;;;;;4998328;28;20077;-80
2023/09/28 15:17:36;;;;;;;8.70;5.90;;;;;;;;;;5015554;28;20030;-79
2023/09/28 15:20:05;;;;;;;6.63;5.90;;;;;;;;;;5015865;28;20084;-80
2023/09/28 15:22:32;;;;;;;6.10;5.50;;;;;;;;;;5015749;28;20476;-80
2023/09/28 15:24:58;;;;;;;7.10;6.00;;;;;;;;;;5015826;28;20034;-79
2023/09/28 15:27:24;;;;;;;7.43;5.53;;;;;;;;;;5015739;28;20036;-79
2023/09/28 15:29:50;;;;;;;6.55;5.60;;;;;;;;;;5015696;28;20105;-79
2023/09/28 15:32:15;;;;;;;7.40;5.78;;;;;;;;;;5015179;28;20050;-80
2023/09/28 15:34:41;;;;;;;6.90;5.63;;;;;;;;;;5015733;28;20022;-79
2023/09/28 15:37:07;;;;;;;8.20;5.38;;;;;;;;;;5015506;28;20064;-79
2023/09/28 15:39:36;;;;;;;5.75;5.15;;;;;;;;;;5015175;28;20033;-81
2023/09/28 15:42:04;;;;;;;6.15;5.53;;;;;;;;;;5015255;28;20033;-80
2023/09/28 15:44:32;;;;;;;6.50;5.78;;;;;;;;;;5015338;28;20077;-79
2023/09/28 15:46:58;;;;;;;6.75;5.70;;;;;;;;;;5015161;28;20026;-79
2023/09/28 15:49:25;;;;;;;7.53;5.97;;;;;;;;;;5015352;28;20034;-81
2023/09/28 15:51:51;;;;;;;8.20;5.50;;;;;;;;;;5015241;28;20114;-80
2023/09/28 15:54:16;;;;;;;8.82;5.97;;;;;;;;;;5014982;28;20487;-79
2023/09/28 15:56:41;;;;;;;5.68;5.05;;;;;;;;;;5014936;28;20029;-83
2023/09/28 15:59:07;;;;;;;6.00;5.40;;;;;;;;;;5014953;28;20022;-78
2023/09/28 16:01:34;;;;;;;7.22;5.32;;;;;;;;;;5015228;28;20109;-79
2023/09/28 16:03:59;;;;;;;6.30;5.05;;;;;;;;;;5015050;28;20053;-78
2023/09/28 16:06:25;;;;;;;7.72;5.13;;;;;;;;;;5015022;28;20103;-81
2023/09/28 16:08:51;;;;;;;7.32;5.25;;;;;;;;;;4997230;28;20452;-79
2023/09/28 16:11:18;;;;;;;7.68;5.70;;;;;;;;;;5014888;28;20030;-80
2023/09/28 16:13:43;;;;;;;8.30;5.55;;;;;;;;;;5014662;28;20017;-79
2023/09/28 16:16:09;;;;;;;8.07;5.30;;;;;;;;;;5014937;28;20045;-79
2023/09/28 16:18:34;;;;;;;6.90;5.28;;;;;;;;;;5014595;28;20443;-79
2023/09/28 16:21:00;;;;;;;6.53;5.32;;;;;;;;;;5014748;28;20113;-79
2023/09/28 16:23:26;;;;;;;5.60;4.95;;;;;;;;;;5014668;28;20044;-79
2023/09/28 16:25:52;;;;;;;6.40;5.30;;;;;;;;;;5014771;28;20358;-79
2023/09/28 16:28:18;;;;;;;8.60;5.15;;;;;;;;;;5014552;28;20030;-79
2023/09/28 16:30:44;;;;;;;5.72;5.03;;;;;;;;;;5014606;28;20099;-79
2023/09/28 16:33:09;;;;;;;6.10;5.50;;;;;;;;;;5014244;28;20045;-79
2023/09/28 16:35:34;;;;;;;5.65;4.82;;;;;;;;;;5014671;28;20419;-80
2023/09/28 16:38:00;;;;;;;6.10;5.18;;;;;;;;;;4996677;28;20026;-79
2023/09/28 16:40:26;;;;;;;7.68;5.50;;;;;;;;;;5014394;28;20030;-80
2023/09/28 16:42:52;;;;;;;7.13;6.43;;;;;;;;;;4996477;28;20030;-80
2023/09/28 16:45:18;;;;;;;8.02;7.18;;;;;;;;;;5014156;28;20096;-79
2023/09/28 16:47:44;;;;;;;10.15;7.43;;;;;;;;;;5014516;28;20021;-80
2023/09/28 16:50:10;;;;;;;9.88;9.00;;;;;;;;;;4996509;28;20532;-80
2023/09/28 16:52:36;;;;;;;10.18;8.30;;;;;;;;;;5014162;28;20030;-82
2023/09/28 16:55:01;;;;;;;7.30;6.68;;;;;;;;;;5014106;28;20048;-80
2023/09/28 16:57:27;;;;;;;6.45;5.68;;;;;;;;;;4996344;28;20080;-80
2023/09/28 16:59:52;;;;;;;6.50;5.90;;;;;;;;;;5013821;28;20022;-81
2023/09/28 17:02:17;;;;;;;7.32;6.45;;;;;;;;;;5013992;28;20030;-79
2023/09/28 17:04:43;;;;;;;7.93;7.18;;;;;;;;;;5013963;28;20072;-80
2023/09/28 17:07:08;;;;;;;10.98;9.98;;;;;;;;;;5013636;28;20026;-79
2023/09/28 17:09:34;;;;;;;9.75;8.77;;;;;;;;;;5014122;28;20026;-79
2023/09/28 17:12:00;;;;;;;10.27;7.57;;;;;;;;;;5013948;28;20058;-80
2023/09/28 17:14:25;;;;;;;6.57;5.72;;;;;;;;;;5013787;28;20018;-80
2023/09/28 17:16:51;;;;;;;8.27;6.22;;;;;;;;;;5013800;28;20026;-79
2023/09/28 17:19:16;;;;;;;7.97;7.18;;;;;;;;;;4996332;28;20108;-79
2023/09/28 17:21:43;;;;;;;8.27;7.47;;;;;;;;;;5013653;28;20022;-80
2023/09/28 17:24:08;;;;;;;8.23;7.43;;;;;;;;;;5013733;28;20115;-79
2023/09/28 17:26:33;;;;;;;8.15;7.32;;;;;;;;;;5013802;28;20077;-80
2023/09/28 17:28:59;;;;;;;10.82;7.40;;;;;;;;;;5013759;28;20021;-80
2023/09/28 17:31:24;;;;;;;7.47;6.65;;;;;;;;;;5013655;28;20041;-80
2023/09/28 17:33:50;;;;;;;8.00;6.10;;;;;;;;;;5013625;28;20037;-80
2023/09/28 17:36:15;;;;;;;6.32;5.05;;;;;;;;;;5013656;28;20053;-79
2023/09/28 17:38:41;;;;;;;6.90;5.57;;;;;;;;;;5013609;28;20388;-82
2023/09/28 17:41:10;;;;;;;6.93;5.90;;;;;;;;;;5013499;28;20025;-79
2023/09/28 17:43:36;;;;;;;5.78;5.25;;;;;;;;;;5013422;28;20026;-77
2023/09/28 17:46:04;;;;;;;7.22;5.65;;;;;;;;;;5013353;28;20028;-77
2023/09/28 17:48:30;;;;;;;7.07;6.38;;;;;;;;;;5013281;28;20033;-79
2023/09/28 17:50:55;;;;;;;7.45;6.28;;;;;;;;;;5013516;28;20038;-78
2023/09/28 17:53:21;;;;;;;9.73;6.32;;;;;;;;;;5013429;28;20022;-78
2023/09/28 17:55:47;;;;;;;7.63;6.65;;;;;;;;;;5013381;28;20033;-78
2023/09/28 17:58:17;;;;;;;7.00;6.15;;;;;;;;;;5013474;28;20373;-77
2023/09/28 18:00:44;;;;;;;6.45;5.85;;;;;;;;;;5013514;28;20034;-77
2023/09/28 18:03:10;;;;;;;7.25;5.90;;;;;;;;;;5013283;28;20080;-77
2023/09/28 18:05:37;;;;;;;6.35;5.63;;;;;;;;;;5013260;28;20384;-78
2023/09/28 18:08:03;;;;;;;6.25;5.65;;;;;;;;;;5013256;28;20022;-78
2023/09/28 18:10:31;;;;;;;7.18;5.82;;;;;;;;;;4995860;28;20489;-78
2023/09/28 18:12:56;;;;;;;7.10;5.93;;;;;;;;;;5013329;28;20030;-79
2023/09/28 18:15:23;;;;;;;7.30;6.10;;;;;;;;;;5013384;28;20068;-78
2023/09/28 18:17:50;;;;;;;8.25;6.80;;;;;;;;;;5014180;28;20029;-78
2023/09/28 18:20:15;;;;;;;8.35;7.07;;;;;;;;;;5017028;28;20116;-80
2023/09/28 18:22:41;;;;;;;9.48;7.55;;;;;;;;;;5016984;28;20469;-79
2023/09/28 18:25:09;;;;;;;6.55;5.85;;;;;;;;;;5016617;28;20026;-80
2023/09/28 18:27:35;;;;;;;6.95;5.88;;;;;;;;;;5016662;28;20088;-79
2023/09/28 18:30:00;;;;;;;6.88;6.15;;;;;;;;;;5016787;28;20460;-80
2023/09/28 18:32:25;;;;;;;6.53;5.93;;;;;;;;;;5016742;28;20381;-79
2023/09/28 18:34:51;;;;;;;8.50;7.47;;;;;;;;;;5016851;28;20026;-79
2023/09/28 18:37:18;;;;;;;8.02;5.82;;;;;;;;;;5016585;28;20026;-78
2023/09/28 18:39:44;;;;;;;6.30;5.70;;;;;;;;;;5016334;28;20029;-83
2023/09/28 18:42:10;;;;;;;7.22;6.53;;;;;;;;;;5016455;28;20100;-83
2023/09/28 18:44:36;;;;;;;7.05;5.72;;;;;;;;;;5016642;28;20461;-80
2023/09/28 18:47:02;;;;;;;8.45;6.50;;;;;;;;;;5016328;28;20109;-79
2023/09/28 18:49:27;;;;;;;7.40;6.60;;;;;;;;;;5016326;28;20026;-78
2023/09/28 18:51:53;;;;;;;10.63;6.57;;;;;;;;;;5016530;28;20092;-78
2023/09/28 18:54:18;;;;;;;10.50;6.20;;;;;;;;;;5016328;28;20461;-78
2023/09/28 18:56:44;;;;;;;9.20;6.03;;;;;;;;;;5016038;28;20366;-79
2023/09/28 18:59:09;;;;;;;7.63;6.72;;;;;;;;;;5016080;28;20097;-79
2023/09/28 19:01:35;;;;;;;8.13;6.25;;;;;;;;;;5016386;28;20527;-81
2023/09/28 19:04:01;;;;;;;10.77;6.13;;;;;;;;;;5016369;28;20075;-80
2023/09/28 19:06:28;;;;;;;8.55;6.85;;;;;;;;;;5016233;28;20026;-80
2023/09/28 19:08:54;;;;;;;8.30;6.60;;;;;;;;;;5015934;28;20026;-80
2023/09/28 19:11:20;;;;;;;6.25;5.68;;;;;;;;;;4998424;28;20033;-80
2023/09/28 19:13:45;;;;;;;8.00;6.18;;;;;;;;;;5016354;28;20026;-80
2023/09/28 19:16:11;;;;;;;9.30;6.22;;;;;;;;;;5016110;28;20473;-79
2023/09/28 19:18:37;;;;;;;6.93;6.05;;;;;;;;;;5016034;28;20572;-78
2023/09/28 19:21:05;;;;;;;7.95;6.38;;;;;;;;;;5015812;28;20105;-81
2023/09/28 19:23:30;;;;;;;7.70;6.47;;;;;;;;;;5016045;28;20022;-81
2023/09/28 19:25:57;;;;;;;7.18;6.13;;;;;;;;;;5015595;28;20033;-82
2023/09/28 19:28:23;;;;;;;7.88;6.65;;;;;;;;;;5015633;28;20022;-82
2023/09/28 19:30:49;;;;;;;6.78;6.07;;;;;;;;;;5015054;28;20381;-81
2023/09/28 19:33:15;;;;;;;7.68;6.00;;;;;;;;;;5015432;28;20050;-81
2023/09/28 19:35:41;;;;;;;8.93;6.13;;;;;;;;;;5015709;28;20068;-82
2023/09/28 19:38:07;;;;;;;6.95;5.70;;;;;;;;;;5015274;28;20033;-82
2023/09/28 19:40:36;;;;;;;7.35;6.50;;;;;;;;;;5015533;28;20116;-79
2023/09/28 19:43:03;;;;;;;8.40;6.53;;;;;;;;;;5009453;28;20045;-78
2023/09/28 19:45:28;;;;;;;7.20;6.50;;;;;;;;;;5011879;28;20392;-78
2023/09/28 19:47:54;;;;;;;8.40;6.65;;;;;;;;;;5014948;28;20029;-78
2023/09/28 19:50:22;;;;;;;9.88;6.28;;;;;;;;;;5011086;28;20030;-78
2023/09/28 19:52:48;;;;;;;9.63;6.50;;;;;;;;;;5009211;28;20064;-79
2023/09/28 19:55:13;;;;;;;8.73;6.57;;;;;;;;;;5015098;28;20504;-78
2023/09/28 19:57:39;;;;;;;8.63;6.30;;;;;;;;;;5014849;28;20065;-78
2023/09/28 20:00:07;;;;;;;6.85;6.15;;;;;;;;;;5005050;28;20022;-78
2023/09/28 20:02:33;;;;;;;9.55;7.10;;;;;;;;;;5014675;28;20026;-78
2023/09/28 20:04:58;;;;;;;7.00;6.07;;;;;;;;;;5014986;28;20030;-78
2023/09/28 20:07:24;;;;;;;7.07;6.00;;;;;;;;;;5014685;28;20106;-79
2023/09/28 20:09:49;;;;;;;8.77;6.65;;;;;;;;;;5014670;28;20097;-79
2023/09/28 20:12:18;;;;;;;10.18;6.78;;;;;;;;;;5014636;28;20041;-78
2023/09/28 20:14:47;;;;;;;7.45;6.68;;;;;;;;;;5014958;28;20022;-78
2023/09/28 20:17:13;;;;;;;8.95;6.97;;;;;;;;;;5004968;28;20449;-78
2023/09/28 20:19:39;;;;;;;6.60;6.03;;;;;;;;;;5014457;28;20025;-78
2023/09/28 20:22:04;;;;;;;7.60;6.30;;;;;;;;;;5014388;28;20045;-79
2023/09/28 20:24:32;;;;;;;7.47;6.78;;;;;;;;;;5014413;28;20053;-78
2023/09/28 20:26:57;;;;;;;8.32;6.85;;;;;;;;;;5014504;28;20441;-79
2023/09/28 20:29:23;;;;;;;7.25;6.50;;;;;;;;;;5014558;28;20068;-79
2023/09/28 20:31:48;;;;;;;8.13;6.60;;;;;;;;;;5014151;28;20073;-79
2023/09/28 20:34:14;;;;;;;7.78;6.70;;;;;;;;;;5014333;28;20034;-79
2023/09/28 20:36:39;;;;;;;7.95;6.68;;;;;;;;;;5014227;28;20038;-79
2023/09/28 20:39:05;;;;;;;8.80;7.38;;;;;;;;;;5014093;28;20030;-80
2023/09/28 20:41:31;;;;;;;7.18;6.28;;;;;;;;;;5013643;28;20033;-79
2023/09/28 20:43:56;;;;;;;8.10;6.50;;;;;;;;;;5014229;28;20022;-80
2023/09/28 20:46:22;;;;;;;7.45;6.68;;;;;;;;;;5014041;28;20026;-80
2023/09/28 20:48:47;;;;;;;10.55;6.80;;;;;;;;;;5014089;28;20105;-79
2023/09/28 20:51:14;;;;;;;8.93;7.15;;;;;;;;;;4986454;28;20018;-79
2023/09/28 20:53:40;;;;;;;9.10;6.80;;;;;;;;;;5014315;28;20021;-79
2023/09/28 20:56:16;;;;;;;9.77;7.65;;;;;;;;;;5013995;28;20026;-79
2023/09/28 20:58:42;;;;;;;10.77;7.80;;;;;;;;;;5013764;28;20033;-79
2023/09/28 21:01:11;;;;;;;10.32;7.97;;;;;;;;;;5014214;28;20026;-79
2023/09/28 21:03:37;;;;;;;;;;;;;;;;;;5014148;28;20128;-78
2023/09/28 21:06:05;;;;;;;8.65;7.60;;;;;;;;;;5013831;28;19944;-79
2023/09/28 21:08:31;;;;;;;8.60;7.40;;;;;;;;;;5013671;28;20032;-78
2023/09/28 21:10:57;;;;;;;8.38;7.47;;;;;;;;;;5013854;28;20113;-80
2023/09/28 21:13:22;;;;;;;9.68;7.63;;;;;;;;;;4996252;28;20041;-78
2023/09/28 21:15:48;;;;;;;8.85;7.53;;;;;;;;;;5013926;28;20030;-79
2023/09/28 21:18:13;;;;;;;8.88;7.47;;;;;;;;;;5013596;28;20030;-80
2023/09/28 21:20:39;;;;;;;9.23;8.07;;;;;;;;;;5014003;28;20125;-80
2023/09/28 21:23:04;;;;;;;8.45;7.45;;;;;;;;;;5013784;28;20424;-80
2023/09/28 21:25:30;;;;;;;10.32;7.15;;;;;;;;;;5013879;28;20026;-79
2023/09/28 21:27:55;;;;;;;8.27;6.85;;;;;;;;;;4996224;28;20064;-79
2023/09/28 21:30:21;;;;;;;10.48;6.57;;;;;;;;;;5013652;28;20028;-79
2023/09/28 21:32:46;;;;;;;7.43;6.60;;;;;;;;;;5013415;28;20480;-79
2023/09/28 21:35:12;;;;;;;9.48;7.50;;;;;;;;;;5013903;28;20026;-79
2023/09/28 21:37:37;;;;;;;8.80;7.22;;;;;;;;;;5013958;28;20369;-79
2023/09/28 21:40:04;;;;;;;9.60;7.90;;;;;;;;;;5013671;28;20048;-79
2023/09/28 21:42:29;;;;;;;8.02;7.25;;;;;;;;;;5013968;28;20484;-79
2023/09/28 21:44:59;;;;;;;8.98;7.07;;;;;;;;;;5013624;28;20480;-80
2023/09/28 21:47:25;;;;;;;8.73;6.90;;;;;;;;;;5013687;28;20480;-79
2023/09/28 21:49:51;;;;;;;8.93;7.22;;;;;;;;;;5013402;28;20108;-79
2023/09/28 21:52:16;;;;;;;8.20;7.40;;;;;;;;;;5013675;28;20176;-80
2023/09/28 21:54:41;;;;;;;8.48;6.93;;;;;;;;;;5017581;28;20026;-80
